sensor_id;sensor_type;location;lat;lon;timestamp;temperature;humidity
50512;DHT22;36446;47.642;-3.018;2023-12-20T00:01:01;18.70;98.30
50512;DHT22;36446;47.642;-3.018;2023-12-20T00:03:28;18.70;98.30
50512;DHT22;36446;47.642;-3.018;2023-12-20T00:05:55;18.60;98.30
50512;DHT22;36446;47.642;-3.018;2023-12-20T00:08:22;18.60;98.30
50512;DHT22;36446;47.642;-3.018;2023-12-20T00:10:49;18.60;98.30
50512;DHT22;36446;47.642;-3.018;2023-12-20T00:13:16;18.60;98.40
50512;DHT22;36446;47.642;-3.018;2023-12-20T00:15:44;18.60;98.40
50512;DHT22;36446;47.642;-3.018;2023-12-20T00:18:11;18.60;98.50
50512;DHT22;36446;47.642;-3.018;2023-12-20T00:20:38;18.50;98.50
50512;DHT22;36446;47.642;-3.018;2023-12-20T00:23:05;18.50;98.50
50512;DHT22;36446;47.642;-3.018;2023-12-20T00:25:33;18.50;98.50
50512;DHT22;36446;47.642;-3.018;2023-12-20T00:28:00;18.50;98.50
50512;DHT22;36446;47.642;-3.018;2023-12-20T00:30:27;18.50;98.60
50512;DHT22;36446;47.642;-3.018;2023-12-20T00:32:56;18.50;98.70
50512;DHT22;36446;47.642;-3.018;2023-12-20T00:35:23;18.50;98.70
50512;DHT22;36446;47.642;-3.018;2023-12-20T00:37:50;18.50;98.70
50512;DHT22;36446;47.642;-3.018;2023-12-20T00:40:17;18.50;98.70
50512;DHT22;36446;47.642;-3.018;2023-12-20T00:42:43;18.50;98.70
50512;DHT22;36446;47.642;-3.018;2023-12-20T00:45:12;18.40;98.70
50512;DHT22;36446;47.642;-3.018;2023-12-20T00:47:40;18.40;98.70
50512;DHT22;36446;47.642;-3.018;2023-12-20T00:50:09;18.40;98.70
50512;DHT22;36446;47.642;-3.018;2023-12-20T00:52:36;18.40;98.70
50512;DHT22;36446;47.642;-3.018;2023-12-20T00:55:03;18.30;98.70
50512;DHT22;36446;47.642;-3.018;2023-12-20T00:57:31;18.30;98.80
50512;DHT22;36446;47.642;-3.018;2023-12-20T00:59:57;18.30;98.80
50512;DHT22;36446;47.642;-3.018;2023-12-20T01:02:24;18.30;98.80
50512;DHT22;36446;47.642;-3.018;2023-12-20T01:04:51;18.30;98.90
50512;DHT22;36446;47.642;-3.018;2023-12-20T01:07:20;18.30;98.90
50512;DHT22;36446;47.642;-3.018;2023-12-20T01:09:47;18.30;98.90
50512;DHT22;36446;47.642;-3.018;2023-12-20T01:12:14;18.30;99.00
50512;DHT22;36446;47.642;-3.018;2023-12-20T01:14:40;18.30;99.00
50512;DHT22;36446;47.642;-3.018;2023-12-20T01:17:08;18.30;99.00
50512;DHT22;36446;47.642;-3.018;2023-12-20T01:19:35;18.30;99.00
50512;DHT22;36446;47.642;-3.018;2023-12-20T01:22:02;18.30;99.00
50512;DHT22;36446;47.642;-3.018;2023-12-20T01:24:30;18.30;99.00
50512;DHT22;36446;47.642;-3.018;2023-12-20T01:26:57;18.30;99.00
50512;DHT22;36446;47.642;-3.018;2023-12-20T01:29:24;18.30;99.00
50512;DHT22;36446;47.642;-3.018;2023-12-20T01:31:51;18.20;99.00
50512;DHT22;36446;47.642;-3.018;2023-12-20T01:34:18;18.20;99.00
50512;DHT22;36446;47.642;-3.018;2023-12-20T01:36:45;18.20;99.00
50512;DHT22;36446;47.642;-3.018;2023-12-20T01:39:12;18.20;99.10
50512;DHT22;36446;47.642;-3.018;2023-12-20T01:41:40;18.20;99.10
50512;DHT22;36446;47.642;-3.018;2023-12-20T01:44:07;18.20;99.10
50512;DHT22;36446;47.642;-3.018;2023-12-20T01:46:34;18.20;99.10
50512;DHT22;36446;47.642;-3.018;2023-12-20T01:49:01;18.20;99.10
50512;DHT22;36446;47.642;-3.018;2023-12-20T01:51:28;18.20;99.10
50512;DHT22;36446;47.642;-3.018;2023-12-20T01:53:57;18.10;99.10
50512;DHT22;36446;47.642;-3.018;2023-12-20T01:56:24;18.10;99.20
50512;DHT22;36446;47.642;-3.018;2023-12-20T01:58:53;18.20;99.20
50512;DHT22;36446;47.642;-3.018;2023-12-20T02:01:21;18.10;99.10
50512;DHT22;36446;47.642;-3.018;2023-12-20T02:03:48;18.10;99.20
50512;DHT22;36446;47.642;-3.018;2023-12-20T02:06:16;18.20;99.20
50512;DHT22;36446;47.642;-3.018;2023-12-20T02:08:44;18.10;99.20
50512;DHT22;36446;47.642;-3.018;2023-12-20T02:11:11;18.10;99.20
50512;DHT22;36446;47.642;-3.018;2023-12-20T02:13:37;18.10;99.20
50512;DHT22;36446;47.642;-3.018;2023-12-20T02:16:06;18.10;99.20
50512;DHT22;36446;47.642;-3.018;2023-12-20T02:18:33;18.10;99.20
50512;DHT22;36446;47.642;-3.018;2023-12-20T02:21:00;18.10;99.20
50512;DHT22;36446;47.642;-3.018;2023-12-20T02:23:29;18.00;99.20
50512;DHT22;36446;47.642;-3.018;2023-12-20T02:25:55;18.00;99.20
50512;DHT22;36446;47.642;-3.018;2023-12-20T02:28:22;18.00;99.30
50512;DHT22;36446;47.642;-3.018;2023-12-20T02:30:49;18.00;99.30
50512;DHT22;36446;47.642;-3.018;2023-12-20T02:33:16;18.00;99.30
50512;DHT22;36446;47.642;-3.018;2023-12-20T02:35:43;18.00;99.30
50512;DHT22;36446;47.642;-3.018;2023-12-20T02:38:10;18.00;99.30
50512;DHT22;36446;47.642;-3.018;2023-12-20T02:40:39;18.00;99.40
50512;DHT22;36446;47.642;-3.018;2023-12-20T02:43:05;18.00;99.40
50512;DHT22;36446;47.642;-3.018;2023-12-20T02:45:32;18.00;99.40
50512;DHT22;36446;47.642;-3.018;2023-12-20T02:47:59;18.00;99.40
50512;DHT22;36446;47.642;-3.018;2023-12-20T02:50:26;18.00;99.40
50512;DHT22;36446;47.642;-3.018;2023-12-20T02:52:53;17.90;99.40
50512;DHT22;36446;47.642;-3.018;2023-12-20T02:55:20;17.90;99.40
50512;DHT22;36446;47.642;-3.018;2023-12-20T02:57:47;18.00;99.40
50512;DHT22;36446;47.642;-3.018;2023-12-20T03:00:14;17.90;99.40
50512;DHT22;36446;47.642;-3.018;2023-12-20T03:02:41;18.00;99.40
50512;DHT22;36446;47.642;-3.018;2023-12-20T03:05:08;18.00;99.40
50512;DHT22;36446;47.642;-3.018;2023-12-20T03:07:36;18.00;99.40
50512;DHT22;36446;47.642;-3.018;2023-12-20T03:10:05;18.00;99.40
50512;DHT22;36446;47.642;-3.018;2023-12-20T03:12:33;17.90;99.30
50512;DHT22;36446;47.642;-3.018;2023-12-20T03:15:01;18.00;99.40
50512;DHT22;36446;47.642;-3.018;2023-12-20T03:17:28;17.90;99.40
50512;DHT22;36446;47.642;-3.018;2023-12-20T03:19:55;17.90;99.40
50512;DHT22;36446;47.642;-3.018;2023-12-20T03:22:22;17.90;99.40
50512;DHT22;36446;47.642;-3.018;2023-12-20T03:24:49;17.90;99.30
50512;DHT22;36446;47.642;-3.018;2023-12-20T03:27:16;17.90;99.30
50512;DHT22;36446;47.642;-3.018;2023-12-20T03:29:42;17.90;99.40
50512;DHT22;36446;47.642;-3.018;2023-12-20T03:32:11;17.90;99.40
50512;DHT22;36446;47.642;-3.018;2023-12-20T03:34:38;17.90;99.30
50512;DHT22;36446;47.642;-3.018;2023-12-20T03:37:04;17.90;99.30
50512;DHT22;36446;47.642;-3.018;2023-12-20T03:39:31;17.90;99.40
50512;DHT22;36446;47.642;-3.018;2023-12-20T03:41:58;17.90;99.40
50512;DHT22;36446;47.642;-3.018;2023-12-20T03:44:25;17.90;99.40
50512;DHT22;36446;47.642;-3.018;2023-12-20T03:46:52;17.90;99.40
50512;DHT22;36446;47.642;-3.018;2023-12-20T03:49:20;17.90;99.40
50512;DHT22;36446;47.642;-3.018;2023-12-20T03:51:47;17.90;99.40
50512;DHT22;36446;47.642;-3.018;2023-12-20T03:54:14;17.80;99.40
50512;DHT22;36446;47.642;-3.018;2023-12-20T03:56:41;17.80;99.40
50512;DHT22;36446;47.642;-3.018;2023-12-20T03:59:08;17.80;99.30
50512;DHT22;36446;47.642;-3.018;2023-12-20T04:01:35;17.80;99.30
50512;DHT22;36446;47.642;-3.018;2023-12-20T04:04:02;17.80;99.30
50512;DHT22;36446;47.642;-3.018;2023-12-20T04:06:30;17.80;99.40
50512;DHT22;36446;47.642;-3.018;2023-12-20T04:08:57;17.80;99.40
50512;DHT22;36446;47.642;-3.018;2023-12-20T04:11:24;17.80;99.40
50512;DHT22;36446;47.642;-3.018;2023-12-20T04:13:50;17.70;99.40
50512;DHT22;36446;47.642;-3.018;2023-12-20T04:16:17;17.70;99.40
50512;DHT22;36446;47.642;-3.018;2023-12-20T04:18:44;17.70;99.40
50512;DHT22;36446;47.642;-3.018;2023-12-20T04:21:11;17.80;99.50
50512;DHT22;36446;47.642;-3.018;2023-12-20T04:23:39;17.80;99.50
50512;DHT22;36446;47.642;-3.018;2023-12-20T04:26:06;17.80;99.50
50512;DHT22;36446;47.642;-3.018;2023-12-20T04:28:33;17.80;99.50
50512;DHT22;36446;47.642;-3.018;2023-12-20T04:31:00;17.70;99.70
50512;DHT22;36446;47.642;-3.018;2023-12-20T04:33:27;17.80;99.50
50512;DHT22;36446;47.642;-3.018;2023-12-20T04:35:54;17.70;99.50
50512;DHT22;36446;47.642;-3.018;2023-12-20T04:38:21;17.70;99.50
50512;DHT22;36446;47.642;-3.018;2023-12-20T04:40:49;17.70;99.50
50512;DHT22;36446;47.642;-3.018;2023-12-20T04:43:16;17.80;99.50
50512;DHT22;36446;47.642;-3.018;2023-12-20T04:45:43;17.70;99.50
50512;DHT22;36446;47.642;-3.018;2023-12-20T04:48:10;17.70;99.50
50512;DHT22;36446;47.642;-3.018;2023-12-20T04:50:37;17.70;99.50
50512;DHT22;36446;47.642;-3.018;2023-12-20T04:53:04;17.70;99.50
50512;DHT22;36446;47.642;-3.018;2023-12-20T04:55:30;17.70;99.50
50512;DHT22;36446;47.642;-3.018;2023-12-20T04:57:59;17.70;99.50
50512;DHT22;36446;47.642;-3.018;2023-12-20T05:00:26;17.70;99.50
50512;DHT22;36446;47.642;-3.018;2023-12-20T05:02:53;17.70;99.50
50512;DHT22;36446;47.642;-3.018;2023-12-20T05:05:20;17.70;99.50
50512;DHT22;36446;47.642;-3.018;2023-12-20T05:07:47;17.70;99.50
50512;DHT22;36446;47.642;-3.018;2023-12-20T05:10:14;17.70;99.50
50512;DHT22;36446;47.642;-3.018;2023-12-20T05:12:41;17.70;99.50
50512;DHT22;36446;47.642;-3.018;2023-12-20T05:15:10;17.70;99.50
50512;DHT22;36446;47.642;-3.018;2023-12-20T05:17:36;17.70;99.50
50512;DHT22;36446;47.642;-3.018;2023-12-20T05:20:05;17.70;99.50
50512;DHT22;36446;47.642;-3.018;2023-12-20T05:22:32;17.70;99.40
50512;DHT22;36446;47.642;-3.018;2023-12-20T05:24:59;17.60;99.40
50512;DHT22;36446;47.642;-3.018;2023-12-20T05:27:26;17.70;99.40
50512;DHT22;36446;47.642;-3.018;2023-12-20T05:29:53;17.70;99.40
50512;DHT22;36446;47.642;-3.018;2023-12-20T05:32:24;17.70;99.40
50512;DHT22;36446;47.642;-3.018;2023-12-20T05:34:51;17.60;99.40
50512;DHT22;36446;47.642;-3.018;2023-12-20T05:37:18;17.60;99.40
50512;DHT22;36446;47.642;-3.018;2023-12-20T05:39:45;17.60;99.40
50512;DHT22;36446;47.642;-3.018;2023-12-20T05:42:12;17.60;99.50
50512;DHT22;36446;47.642;-3.018;2023-12-20T05:44:39;17.60;99.40
50512;DHT22;36446;47.642;-3.018;2023-12-20T05:47:06;17.60;99.40
50512;DHT22;36446;47.642;-3.018;2023-12-20T05:49:34;17.60;99.40
50512;DHT22;36446;47.642;-3.018;2023-12-20T05:52:01;17.60;99.40
50512;DHT22;36446;47.642;-3.018;2023-12-20T05:54:28;17.60;99.40
50512;DHT22;36446;47.642;-3.018;2023-12-20T05:56:55;17.60;99.40
50512;DHT22;36446;47.642;-3.018;2023-12-20T05:59:22;17.60;99.40
50512;DHT22;36446;47.642;-3.018;2023-12-20T06:01:49;17.60;99.50
50512;DHT22;36446;47.642;-3.018;2023-12-20T06:04:16;17.50;99.40
50512;DHT22;36446;47.642;-3.018;2023-12-20T06:06:44;17.50;99.40
50512;DHT22;36446;47.642;-3.018;2023-12-20T06:09:11;17.50;99.40
50512;DHT22;36446;47.642;-3.018;2023-12-20T06:11:38;17.50;99.40
50512;DHT22;36446;47.642;-3.018;2023-12-20T06:14:05;17.50;99.40
50512;DHT22;36446;47.642;-3.018;2023-12-20T06:16:32;17.50;99.40
50512;DHT22;36446;47.642;-3.018;2023-12-20T06:18:59;17.50;99.40
50512;DHT22;36446;47.642;-3.018;2023-12-20T06:21:26;17.50;99.40
50512;DHT22;36446;47.642;-3.018;2023-12-20T06:23:54;17.50;99.30
50512;DHT22;36446;47.642;-3.018;2023-12-20T06:26:21;17.50;99.30
50512;DHT22;36446;47.642;-3.018;2023-12-20T06:28:48;17.40;99.30
50512;DHT22;36446;47.642;-3.018;2023-12-20T06:31:15;17.50;99.40
50512;DHT22;36446;47.642;-3.018;2023-12-20T06:33:43;17.40;99.30
50512;DHT22;36446;47.642;-3.018;2023-12-20T06:36:11;17.40;99.30
50512;DHT22;36446;47.642;-3.018;2023-12-20T06:38:38;17.40;99.40
50512;DHT22;36446;47.642;-3.018;2023-12-20T06:41:07;17.40;99.40
50512;DHT22;36446;47.642;-3.018;2023-12-20T06:43:34;17.40;99.50
50512;DHT22;36446;47.642;-3.018;2023-12-20T06:46:01;17.40;99.50
50512;DHT22;36446;47.642;-3.018;2023-12-20T06:48:28;17.40;99.40
50512;DHT22;36446;47.642;-3.018;2023-12-20T06:50:55;17.40;99.40
50512;DHT22;36446;47.642;-3.018;2023-12-20T06:53:22;17.40;99.50
50512;DHT22;36446;47.642;-3.018;2023-12-20T06:55:48;17.40;99.50
50512;DHT22;36446;47.642;-3.018;2023-12-20T06:58:17;17.40;99.50
50512;DHT22;36446;47.642;-3.018;2023-12-20T07:00:44;17.40;99.50
50512;DHT22;36446;47.642;-3.018;2023-12-20T07:03:11;17.40;99.50
50512;DHT22;36446;47.642;-3.018;2023-12-20T07:05:37;17.40;99.50
50512;DHT22;36446;47.642;-3.018;2023-12-20T07:08:05;17.40;99.50
50512;DHT22;36446;47.642;-3.018;2023-12-20T07:10:32;17.40;99.50
50512;DHT22;36446;47.642;-3.018;2023-12-20T07:12:59;17.40;99.50
50512;DHT22;36446;47.642;-3.018;2023-12-20T07:15:27;17.40;99.60
50512;DHT22;36446;47.642;-3.018;2023-12-20T07:17:55;17.40;99.60
50512;DHT22;36446;47.642;-3.018;2023-12-20T07:20:22;17.30;99.50
50512;DHT22;36446;47.642;-3.018;2023-12-20T07:22:48;17.40;99.50
50512;DHT22;36446;47.642;-3.018;2023-12-20T07:25:16;17.40;99.50
50512;DHT22;36446;47.642;-3.018;2023-12-20T07:27:43;17.40;99.50
50512;DHT22;36446;47.642;-3.018;2023-12-20T07:30:11;17.40;99.60
50512;DHT22;36446;47.642;-3.018;2023-12-20T07:32:39;17.40;99.60
50512;DHT22;36446;47.642;-3.018;2023-12-20T07:35:07;17.40;99.60
50512;DHT22;36446;47.642;-3.018;2023-12-20T07:37:34;17.40;99.60
50512;DHT22;36446;47.642;-3.018;2023-12-20T07:40:01;17.40;99.60
50512;DHT22;36446;47.642;-3.018;2023-12-20T07:42:29;17.50;99.80
50512;DHT22;36446;47.642;-3.018;2023-12-20T07:44:55;17.50;99.80
50512;DHT22;36446;47.642;-3.018;2023-12-20T07:47:22;17.50;99.90
50512;DHT22;36446;47.642;-3.018;2023-12-20T07:49:52;17.50;99.90
50512;DHT22;36446;47.642;-3.018;2023-12-20T07:52:19;17.60;99.90
50512;DHT22;36446;47.642;-3.018;2023-12-20T07:54:47;17.70;99.90
50512;DHT22;36446;47.642;-3.018;2023-12-20T07:57:14;17.60;99.90
50512;DHT22;36446;47.642;-3.018;2023-12-20T07:59:41;17.70;99.90
50512;DHT22;36446;47.642;-3.018;2023-12-20T08:02:09;17.70;99.90
50512;DHT22;36446;47.642;-3.018;2023-12-20T08:04:36;17.70;99.90
50512;DHT22;36446;47.642;-3.018;2023-12-20T08:07:05;17.70;99.90
50512;DHT22;36446;47.642;-3.018;2023-12-20T08:09:32;17.70;99.90
50512;DHT22;36446;47.642;-3.018;2023-12-20T08:11:59;17.70;99.90
50512;DHT22;36446;47.642;-3.018;2023-12-20T08:14:26;17.70;99.60
50512;DHT22;36446;47.642;-3.018;2023-12-20T08:16:53;17.70;99.30
50512;DHT22;36446;47.642;-3.018;2023-12-20T08:19:20;17.70;99.30
50512;DHT22;36446;47.642;-3.018;2023-12-20T08:21:47;17.70;99.40
50512;DHT22;36446;47.642;-3.018;2023-12-20T08:24:15;17.70;99.40
50512;DHT22;36446;47.642;-3.018;2023-12-20T08:26:42;17.70;99.40
50512;DHT22;36446;47.642;-3.018;2023-12-20T08:29:09;17.70;99.50
50512;DHT22;36446;47.642;-3.018;2023-12-20T08:31:35;17.70;99.50
50512;DHT22;36446;47.642;-3.018;2023-12-20T08:34:02;17.70;99.50
50512;DHT22;36446;47.642;-3.018;2023-12-20T08:36:29;17.70;99.40
50512;DHT22;36446;47.642;-3.018;2023-12-20T08:38:56;17.80;99.40
50512;DHT22;36446;47.642;-3.018;2023-12-20T08:41:24;18.00;99.40
50512;DHT22;36446;47.642;-3.018;2023-12-20T08:43:51;18.00;99.20
50512;DHT22;36446;47.642;-3.018;2023-12-20T08:46:18;18.30;99.00
50512;DHT22;36446;47.642;-3.018;2023-12-20T08:48:45;18.40;98.80
50512;DHT22;36446;47.642;-3.018;2023-12-20T08:51:13;18.30;98.60
50512;DHT22;36446;47.642;-3.018;2023-12-20T08:53:40;18.30;98.60
50512;DHT22;36446;47.642;-3.018;2023-12-20T08:56:07;18.30;98.60
50512;DHT22;36446;47.642;-3.018;2023-12-20T08:58:35;18.20;98.60
50512;DHT22;36446;47.642;-3.018;2023-12-20T09:01:02;18.10;98.70
50512;DHT22;36446;47.642;-3.018;2023-12-20T09:03:29;18.10;98.70
50512;DHT22;36446;47.642;-3.018;2023-12-20T09:05:56;18.00;98.80
50512;DHT22;36446;47.642;-3.018;2023-12-20T09:08:23;18.00;98.90
50512;DHT22;36446;47.642;-3.018;2023-12-20T09:10:50;18.00;98.90
50512;DHT22;36446;47.642;-3.018;2023-12-20T09:13:17;17.90;98.90
50512;DHT22;36446;47.642;-3.018;2023-12-20T09:15:45;17.90;99.00
50512;DHT22;36446;47.642;-3.018;2023-12-20T09:18:12;17.90;99.00
50512;DHT22;36446;47.642;-3.018;2023-12-20T09:20:39;17.90;99.00
50512;DHT22;36446;47.642;-3.018;2023-12-20T09:23:06;17.90;99.00
50512;DHT22;36446;47.642;-3.018;2023-12-20T09:25:33;17.90;99.00
50512;DHT22;36446;47.642;-3.018;2023-12-20T09:28:00;17.80;99.00
50512;DHT22;36446;47.642;-3.018;2023-12-20T09:30:27;17.90;99.10
50512;DHT22;36446;47.642;-3.018;2023-12-20T09:32:56;17.80;99.10
50512;DHT22;36446;47.642;-3.018;2023-12-20T09:35:23;17.90;99.10
50512;DHT22;36446;47.642;-3.018;2023-12-20T09:37:51;17.80;99.10
50512;DHT22;36446;47.642;-3.018;2023-12-20T09:40:19;17.90;99.10
50512;DHT22;36446;47.642;-3.018;2023-12-20T09:42:50;17.90;99.00
50512;DHT22;36446;47.642;-3.018;2023-12-20T09:45:21;17.90;99.00
50512;DHT22;36446;47.642;-3.018;2023-12-20T09:47:49;17.90;99.00
50512;DHT22;36446;47.642;-3.018;2023-12-20T09:50:18;17.90;99.00
50512;DHT22;36446;47.642;-3.018;2023-12-20T09:52:46;17.90;99.00
50512;DHT22;36446;47.642;-3.018;2023-12-20T09:55:17;17.80;99.00
50512;DHT22;36446;47.642;-3.018;2023-12-20T09:57:44;17.90;99.00
50512;DHT22;36446;47.642;-3.018;2023-12-20T10:00:12;17.80;99.00
50512;DHT22;36446;47.642;-3.018;2023-12-20T10:02:45;17.80;99.00
50512;DHT22;36446;47.642;-3.018;2023-12-20T10:05:16;17.80;99.10
50512;DHT22;36446;47.642;-3.018;2023-12-20T10:07:46;17.70;99.00
50512;DHT22;36446;47.642;-3.018;2023-12-20T10:10:13;17.80;99.10
50512;DHT22;36446;47.642;-3.018;2023-12-20T10:12:40;17.70;99.10
50512;DHT22;36446;47.642;-3.018;2023-12-20T10:15:08;17.70;99.30
50512;DHT22;36446;47.642;-3.018;2023-12-20T10:17:36;17.70;99.10
50512;DHT22;36446;47.642;-3.018;2023-12-20T10:20:04;17.70;99.10
50512;DHT22;36446;47.642;-3.018;2023-12-20T10:22:35;17.70;99.10
50512;DHT22;36446;47.642;-3.018;2023-12-20T10:25:04;17.70;99.10
50512;DHT22;36446;47.642;-3.018;2023-12-20T10:27:32;17.70;99.10
50512;DHT22;36446;47.642;-3.018;2023-12-20T10:29:59;17.70;99.10
50512;DHT22;36446;47.642;-3.018;2023-12-20T10:32:27;17.70;99.10
50512;DHT22;36446;47.642;-3.018;2023-12-20T10:34:54;17.70;99.00
50512;DHT22;36446;47.642;-3.018;2023-12-20T10:37:22;17.70;99.00
50512;DHT22;36446;47.642;-3.018;2023-12-20T10:39:50;17.70;99.00
50512;DHT22;36446;47.642;-3.018;2023-12-20T10:42:20;17.80;99.00
50512;DHT22;36446;47.642;-3.018;2023-12-20T10:44:49;17.80;99.00
50512;DHT22;36446;47.642;-3.018;2023-12-20T10:47:16;17.70;99.00
50512;DHT22;36446;47.642;-3.018;2023-12-20T10:49:44;17.70;99.00
50512;DHT22;36446;47.642;-3.018;2023-12-20T10:52:12;17.70;99.00
50512;DHT22;36446;47.642;-3.018;2023-12-20T10:54:40;17.70;99.00
50512;DHT22;36446;47.642;-3.018;2023-12-20T10:57:07;17.70;99.00
50512;DHT22;36446;47.642;-3.018;2023-12-20T10:59:37;17.70;98.90
50512;DHT22;36446;47.642;-3.018;2023-12-20T11:02:04;17.70;98.90
50512;DHT22;36446;47.642;-3.018;2023-12-20T11:04:39;17.70;98.90
50512;DHT22;36446;47.642;-3.018;2023-12-20T11:07:19;17.70;99.10
50512;DHT22;36446;47.642;-3.018;2023-12-20T11:09:53;17.70;98.90
50512;DHT22;36446;47.642;-3.018;2023-12-20T11:12:32;17.70;98.90
50512;DHT22;36446;47.642;-3.018;2023-12-20T11:15:03;17.70;98.80
50512;DHT22;36446;47.642;-3.018;2023-12-20T11:17:31;17.70;98.80
50512;DHT22;36446;47.642;-3.018;2023-12-20T11:20:07;17.80;98.80
50512;DHT22;36446;47.642;-3.018;2023-12-20T11:22:36;17.80;98.80
50512;DHT22;36446;47.642;-3.018;2023-12-20T11:25:05;17.80;98.80
50512;DHT22;36446;47.642;-3.018;2023-12-20T11:27:33;17.90;98.80
50512;DHT22;36446;47.642;-3.018;2023-12-20T11:30:04;17.80;98.80
50512;DHT22;36446;47.642;-3.018;2023-12-20T11:32:34;17.90;98.80
50512;DHT22;36446;47.642;-3.018;2023-12-20T11:35:16;17.90;98.70
50512;DHT22;36446;47.642;-3.018;2023-12-20T11:37:43;17.90;98.70
50512;DHT22;36446;47.642;-3.018;2023-12-20T11:40:14;17.90;98.70
50512;DHT22;36446;47.642;-3.018;2023-12-20T11:42:42;17.90;98.70
50512;DHT22;36446;47.642;-3.018;2023-12-20T11:45:13;17.90;98.70
50512;DHT22;36446;47.642;-3.018;2023-12-20T11:47:42;17.90;98.70
50512;DHT22;36446;47.642;-3.018;2023-12-20T11:50:09;17.90;98.70
50512;DHT22;36446;47.642;-3.018;2023-12-20T11:52:36;17.90;98.60
50512;DHT22;36446;47.642;-3.018;2023-12-20T11:55:04;17.90;98.70
50512;DHT22;36446;47.642;-3.018;2023-12-20T11:57:31;17.90;98.70
50512;DHT22;36446;47.642;-3.018;2023-12-20T11:59:58;17.90;98.60
50512;DHT22;36446;47.642;-3.018;2023-12-20T12:02:27;17.90;98.60
50512;DHT22;36446;47.642;-3.018;2023-12-20T12:04:54;17.90;98.50
50512;DHT22;36446;47.642;-3.018;2023-12-20T12:07:22;17.90;98.50
50512;DHT22;36446;47.642;-3.018;2023-12-20T12:09:48;17.90;98.50
50512;DHT22;36446;47.642;-3.018;2023-12-20T12:12:17;17.90;98.40
50512;DHT22;36446;47.642;-3.018;2023-12-20T12:14:45;17.90;98.40
50512;DHT22;36446;47.642;-3.018;2023-12-20T12:17:13;17.90;98.60
50512;DHT22;36446;47.642;-3.018;2023-12-20T12:19:42;17.90;98.40
50512;DHT22;36446;47.642;-3.018;2023-12-20T12:22:10;17.90;98.40
50512;DHT22;36446;47.642;-3.018;2023-12-20T12:24:39;17.90;98.40
50512;DHT22;36446;47.642;-3.018;2023-12-20T12:27:06;17.90;98.40
50512;DHT22;36446;47.642;-3.018;2023-12-20T12:29:34;17.90;98.40
50512;DHT22;36446;47.642;-3.018;2023-12-20T12:32:04;17.90;98.40
50512;DHT22;36446;47.642;-3.018;2023-12-20T12:34:31;17.90;98.40
50512;DHT22;36446;47.642;-3.018;2023-12-20T12:36:59;17.80;98.40
50512;DHT22;36446;47.642;-3.018;2023-12-20T12:39:26;17.80;98.40
50512;DHT22;36446;47.642;-3.018;2023-12-20T12:41:55;17.80;98.40
50512;DHT22;36446;47.642;-3.018;2023-12-20T12:44:22;17.80;98.40
50512;DHT22;36446;47.642;-3.018;2023-12-20T12:46:50;17.70;98.40
50512;DHT22;36446;47.642;-3.018;2023-12-20T12:49:19;17.70;98.50
50512;DHT22;36446;47.642;-3.018;2023-12-20T12:51:46;17.70;98.50
50512;DHT22;36446;47.642;-3.018;2023-12-20T12:54:15;17.70;98.60
50512;DHT22;36446;47.642;-3.018;2023-12-20T12:56:44;17.70;98.60
50512;DHT22;36446;47.642;-3.018;2023-12-20T12:59:12;17.70;98.60
50512;DHT22;36446;47.642;-3.018;2023-12-20T13:01:39;17.70;98.70
50512;DHT22;36446;47.642;-3.018;2023-12-20T13:04:07;17.70;98.80
50512;DHT22;36446;47.642;-3.018;2023-12-20T13:06:36;17.60;98.70
50512;DHT22;36446;47.642;-3.018;2023-12-20T13:09:03;17.60;98.80
50512;DHT22;36446;47.642;-3.018;2023-12-20T13:11:34;17.70;98.80
50512;DHT22;36446;47.642;-3.018;2023-12-20T13:14:01;17.60;98.70
50512;DHT22;36446;47.642;-3.018;2023-12-20T13:16:29;17.60;98.80
50512;DHT22;36446;47.642;-3.018;2023-12-20T13:18:56;17.70;99.00
50512;DHT22;36446;47.642;-3.018;2023-12-20T13:21:24;17.70;99.00
50512;DHT22;36446;47.642;-3.018;2023-12-20T13:23:51;17.70;99.10
50512;DHT22;36446;47.642;-3.018;2023-12-20T13:26:19;17.60;99.10
50512;DHT22;36446;47.642;-3.018;2023-12-20T13:28:47;17.70;99.10
50512;DHT22;36446;47.642;-3.018;2023-12-20T13:31:14;17.60;99.00
50512;DHT22;36446;47.642;-3.018;2023-12-20T13:33:41;17.60;99.00
50512;DHT22;36446;47.642;-3.018;2023-12-20T13:36:08;17.60;99.10
50512;DHT22;36446;47.642;-3.018;2023-12-20T13:38:35;17.60;99.10
50512;DHT22;36446;47.642;-3.018;2023-12-20T13:41:02;17.60;99.10
50512;DHT22;36446;47.642;-3.018;2023-12-20T13:43:30;17.60;99.10
50512;DHT22;36446;47.642;-3.018;2023-12-20T13:45:59;17.60;99.10
50512;DHT22;36446;47.642;-3.018;2023-12-20T13:48:26;17.50;99.10
50512;DHT22;36446;47.642;-3.018;2023-12-20T13:50:53;17.50;99.10
50512;DHT22;36446;47.642;-3.018;2023-12-20T13:53:21;17.60;99.10
50512;DHT22;36446;47.642;-3.018;2023-12-20T13:55:48;17.50;99.10
50512;DHT22;36446;47.642;-3.018;2023-12-20T13:58:15;17.60;99.10
50512;DHT22;36446;47.642;-3.018;2023-12-20T14:00:42;17.60;99.10
50512;DHT22;36446;47.642;-3.018;2023-12-20T14:03:10;17.60;99.20
50512;DHT22;36446;47.642;-3.018;2023-12-20T14:05:37;17.50;99.10
50512;DHT22;36446;47.642;-3.018;2023-12-20T14:08:05;17.60;99.20
50512;DHT22;36446;47.642;-3.018;2023-12-20T14:10:32;17.60;99.20
50512;DHT22;36446;47.642;-3.018;2023-12-20T14:12:59;17.60;99.10
50512;DHT22;36446;47.642;-3.018;2023-12-20T14:15:25;17.50;99.20
50512;DHT22;36446;47.642;-3.018;2023-12-20T14:17:52;17.60;99.30
50512;DHT22;36446;47.642;-3.018;2023-12-20T14:20:21;17.60;99.20
50512;DHT22;36446;47.642;-3.018;2023-12-20T14:22:48;17.50;99.20
50512;DHT22;36446;47.642;-3.018;2023-12-20T14:25:15;17.50;99.20
50512;DHT22;36446;47.642;-3.018;2023-12-20T14:27:42;17.50;99.20
50512;DHT22;36446;47.642;-3.018;2023-12-20T14:30:11;17.50;99.30
50512;DHT22;36446;47.642;-3.018;2023-12-20T14:32:39;17.50;99.30
50512;DHT22;36446;47.642;-3.018;2023-12-20T14:35:06;17.50;99.30
50512;DHT22;36446;47.642;-3.018;2023-12-20T14:37:36;17.50;99.30
